createdAt,value
2022-12-04T00:02:16.048Z,9.73
2022-12-04T00:04:42.762Z,11.80
2022-12-04T00:07:09.387Z,11.60
2022-12-04T00:09:36.064Z,8.60
2022-12-04T00:12:02.716Z,10.90
2022-12-04T00:14:29.407Z,11.57
2022-12-04T00:16:56.140Z,9.43
2022-12-04T00:19:22.897Z,11.60
2022-12-04T00:21:50.803Z,10.63
2022-12-04T00:24:17.538Z,13.30
2022-12-04T00:26:44.256Z,12.17
2022-12-04T00:29:10.911Z,11.60
2022-12-04T00:31:37.730Z,11.10
2022-12-04T00:34:07.939Z,11.10
2022-12-04T00:36:35.031Z,14.80
2022-12-04T00:39:02.148Z,11.57
2022-12-04T00:41:30.498Z,9.83
2022-12-04T00:43:57.230Z,10.67
2022-12-04T00:46:24.249Z,11.00
2022-12-04T00:48:51.550Z,10.07
2022-12-04T00:51:24.892Z,11.37
2022-12-04T00:53:53.000Z,9.77
2022-12-04T00:56:23.104Z,11.83
2022-12-04T00:58:52.919Z,10.03
2022-12-04T01:01:20.901Z,8.80
2022-12-04T01:03:48.709Z,9.00
2022-12-04T01:06:24.844Z,9.50
2022-12-04T01:08:53.819Z,8.90
2022-12-04T01:11:22.320Z,9.40
2022-12-04T01:13:48.988Z,10.90
2022-12-04T01:16:28.338Z,13.47
2022-12-04T01:18:55.186Z,12.10
2022-12-04T01:21:22.239Z,9.77
2022-12-04T01:23:49.308Z,8.90
2022-12-04T01:26:16.090Z,8.77
2022-12-04T01:28:42.817Z,11.57
2022-12-04T01:31:15.825Z,9.00
2022-12-04T01:33:42.961Z,12.03
2022-12-04T01:36:13.341Z,9.60
2022-12-04T01:38:40.468Z,9.10
2022-12-04T01:41:08.331Z,8.93
2022-12-04T01:43:37.088Z,11.43
2022-12-04T01:46:04.787Z,8.93
2022-12-04T01:48:34.406Z,9.90
2022-12-04T01:51:16.566Z,9.23
2022-12-04T01:53:49.040Z,10.10
2022-12-04T01:56:17.315Z,9.20
2022-12-04T01:58:48.487Z,9.77
2022-12-04T02:01:15.209Z,9.30
2022-12-04T02:03:41.911Z,12.00
2022-12-04T02:06:08.563Z,12.10
2022-12-04T02:08:36.485Z,7.23
2022-12-04T02:11:09.153Z,8.83
2022-12-04T02:14:07.691Z,10.20
2022-12-04T02:16:40.226Z,11.33
2022-12-04T02:19:17.549Z,10.80
2022-12-04T02:21:49.490Z,9.10
2022-12-04T02:24:46.743Z,12.27
2022-12-04T02:28:11.787Z,7.17
2022-12-04T02:30:42.464Z,9.73
2022-12-04T02:33:20.712Z,10.10
2022-12-04T02:35:55.479Z,10.20
2022-12-04T02:38:42.004Z,8.43
2022-12-04T02:41:17.513Z,9.67
2022-12-04T02:43:48.968Z,10.97
2022-12-04T02:46:24.205Z,10.50
2022-12-04T02:48:55.448Z,8.70
2022-12-04T02:51:24.888Z,10.60
2022-12-04T02:53:56.838Z,10.93
2022-12-04T02:56:28.107Z,8.10
2022-12-04T02:59:29.528Z,9.23
2022-12-04T03:02:01.155Z,13.77
2022-12-04T03:04:30.718Z,11.03
2022-12-04T03:07:02.482Z,9.83
2022-12-04T03:09:45.184Z,14.30
2022-12-04T03:12:21.257Z,11.50
2022-12-04T03:15:28.427Z,9.73
2022-12-04T03:18:01.163Z,9.20
2022-12-04T03:20:31.515Z,13.40
2022-12-04T03:23:11.575Z,8.33
2022-12-04T03:25:56.276Z,13.10
2022-12-04T03:28:33.707Z,9.60
2022-12-04T03:31:08.051Z,8.87
2022-12-04T03:33:46.200Z,8.90
2022-12-04T03:36:12.903Z,12.47
2022-12-04T03:38:47.407Z,11.13
2022-12-04T03:41:36.659Z,9.07
2022-12-04T03:44:26.074Z,10.63
2022-12-04T03:47:01.684Z,10.83
2022-12-04T03:49:50.993Z,9.67
2022-12-04T03:52:27.466Z,13.30
2022-12-04T03:55:01.238Z,8.53
2022-12-04T03:57:36.462Z,9.37
2022-12-04T04:00:19.201Z,8.50
2022-12-04T04:03:09.685Z,11.20
2022-12-04T04:05:41.293Z,11.43
2022-12-04T04:08:26.165Z,7.17
2022-12-04T04:10:57.795Z,7.73
2022-12-04T04:13:55.113Z,14.23
2022-12-04T04:16:43.284Z,11.50
2022-12-04T04:19:32.441Z,10.87
2022-12-04T04:22:21.561Z,7.27
2022-12-04T04:24:59.476Z,10.50
2022-12-04T04:27:26.053Z,11.10
2022-12-04T04:29:53.036Z,9.73
2022-12-04T04:32:29.016Z,9.90
2022-12-04T04:35:14.399Z,11.50
2022-12-04T04:37:49.637Z,12.43
2022-12-04T04:40:25.617Z,14.00
2022-12-04T04:43:16.064Z,8.73
2022-12-04T04:46:05.252Z,9.90
2022-12-04T04:48:40.727Z,11.17
2022-12-04T04:51:07.976Z,12.10
2022-12-04T04:53:39.146Z,9.60
2022-12-04T04:56:07.361Z,12.10
2022-12-04T04:58:34.143Z,8.63
2022-12-04T05:01:05.261Z,8.07
2022-12-04T05:03:32.317Z,10.77
2022-12-04T05:05:59.394Z,8.70
2022-12-04T05:08:26.048Z,9.87
2022-12-04T05:10:52.744Z,8.90
2022-12-04T05:13:20.517Z,10.33
2022-12-04T05:15:58.787Z,8.53
2022-12-04T05:18:25.881Z,10.70
2022-12-04T05:20:52.579Z,11.00
2022-12-04T05:23:19.309Z,9.30
2022-12-04T05:25:46.094Z,8.37
2022-12-04T05:28:12.783Z,9.77
2022-12-04T05:30:39.431Z,9.23
2022-12-04T05:33:06.037Z,9.10
2022-12-04T05:35:32.856Z,7.90
2022-12-04T05:37:59.441Z,10.60
2022-12-04T05:40:26.049Z,8.50
2022-12-04T05:42:52.631Z,8.27
2022-12-04T05:45:22.109Z,9.60
2022-12-04T05:47:48.725Z,10.17
2022-12-04T05:50:15.293Z,9.03
2022-12-04T05:52:42.373Z,7.83
2022-12-04T05:55:09.158Z,12.00
2022-12-04T05:57:35.767Z,7.53
2022-12-04T06:00:02.443Z,12.10
2022-12-04T06:02:38.017Z,8.97
2022-12-04T06:05:05.191Z,10.40
2022-12-04T06:07:31.869Z,9.33
2022-12-04T06:09:58.628Z,11.60
2022-12-04T06:12:25.265Z,10.10
2022-12-04T06:14:51.908Z,10.10
2022-12-04T06:17:18.725Z,8.87
2022-12-04T06:19:45.615Z,9.33
2022-12-04T06:22:13.989Z,12.43
2022-12-04T06:24:40.865Z,11.63
2022-12-04T06:29:54.417Z,13.33
2022-12-04T06:32:22.172Z,11.73
2022-12-04T06:34:53.632Z,9.30
2022-12-04T06:37:25.100Z,9.47
2022-12-04T06:39:51.709Z,13.63
2022-12-04T06:42:18.366Z,9.00
2022-12-04T06:44:45.021Z,10.30
2022-12-04T06:47:11.666Z,9.70
2022-12-04T06:49:38.328Z,9.70
2022-12-04T06:52:04.958Z,10.63
2022-12-04T06:54:31.564Z,9.80
2022-12-04T06:56:58.168Z,8.93
2022-12-04T06:59:24.739Z,10.67
2022-12-04T07:01:51.404Z,11.07
2022-12-04T07:04:18.016Z,8.47
2022-12-04T07:06:44.659Z,10.37
2022-12-04T07:09:15.266Z,9.33
2022-12-04T07:11:42.801Z,11.50
2022-12-04T07:14:10.276Z,11.33
2022-12-04T07:16:41.093Z,9.93
2022-12-04T07:19:09.878Z,9.17
2022-12-04T07:21:36.513Z,9.37
2022-12-04T07:24:03.491Z,11.37
2022-12-04T07:26:30.966Z,11.10
2022-12-04T07:28:58.926Z,10.10
2022-12-04T07:31:27.546Z,10.30
2022-12-04T07:33:54.679Z,9.87
2022-12-04T07:36:23.377Z,12.67
2022-12-04T07:38:50.511Z,14.87
2022-12-04T07:41:18.987Z,14.53
2022-12-04T07:43:45.697Z,10.83
2022-12-04T07:46:15.928Z,8.70
2022-12-04T07:48:42.993Z,10.33
2022-12-04T07:51:17.847Z,8.77
2022-12-04T07:53:44.784Z,9.57
2022-12-04T07:56:12.944Z,9.80
2022-12-04T07:58:40.312Z,11.37
2022-12-04T08:01:09.610Z,8.10
2022-12-04T08:03:40.866Z,10.20
2022-12-04T08:06:10.870Z,11.80
2022-12-04T08:08:37.897Z,9.70
2022-12-04T08:11:13.923Z,8.07
2022-12-04T08:13:40.606Z,9.30
2022-12-04T08:16:09.087Z,9.30
2022-12-04T08:18:35.759Z,12.83
2022-12-04T08:21:14.745Z,11.83
2022-12-04T08:23:42.810Z,10.47
2022-12-04T08:26:10.556Z,11.00
2022-12-04T08:28:37.205Z,12.27
2022-12-04T08:31:22.109Z,9.23
2022-12-04T08:33:51.375Z,11.37
2022-12-04T08:36:20.371Z,8.83
2022-12-04T08:38:47.742Z,11.73
2022-12-04T08:41:17.497Z,11.80
2022-12-04T08:43:46.403Z,10.87
2022-12-04T08:46:16.062Z,12.20
2022-12-04T08:48:43.139Z,8.47
2022-12-04T08:51:30.309Z,9.37
2022-12-04T08:53:59.689Z,10.80
2022-12-04T08:56:27.908Z,12.60
2022-12-04T08:58:56.232Z,11.33
2022-12-04T09:01:25.731Z,11.97
2022-12-04T09:03:52.490Z,9.17
2022-12-04T09:06:19.851Z,9.37
2022-12-04T09:08:46.539Z,8.90
2022-12-04T09:11:18.890Z,8.83
2022-12-04T09:13:46.081Z,11.03
2022-12-04T09:16:18.777Z,7.63
2022-12-04T09:18:45.958Z,9.00
2022-12-04T09:21:14.858Z,9.30
2022-12-04T09:23:42.088Z,9.23
2022-12-04T09:26:28.359Z,9.70
2022-12-04T09:28:56.267Z,9.50
2022-12-04T09:31:24.544Z,9.33
2022-12-04T09:33:51.533Z,9.10
2022-12-04T09:36:18.501Z,10.37
2022-12-04T09:38:47.951Z,8.57
2022-12-04T09:41:36.453Z,10.77
2022-12-04T09:44:17.245Z,10.67
2022-12-04T09:47:21.590Z,10.13
2022-12-04T09:49:57.399Z,11.53
2022-12-04T09:52:36.625Z,8.50
2022-12-04T09:55:05.635Z,8.90
2022-12-04T09:57:35.201Z,11.20
2022-12-04T10:00:04.643Z,6.97
2022-12-04T10:02:42.552Z,7.37
2022-12-04T10:06:03.162Z,10.07
2022-12-04T10:08:35.501Z,8.20
2022-12-04T10:11:32.266Z,8.00
2022-12-04T10:14:12.829Z,7.83
2022-12-04T10:16:55.733Z,7.03
2022-12-04T10:19:34.621Z,9.90
2022-12-04T10:22:20.763Z,8.97
2022-12-04T10:24:54.240Z,8.70
2022-12-04T10:27:30.718Z,9.00
2022-12-04T10:30:03.495Z,9.07
2022-12-04T10:32:33.718Z,7.43
2022-12-04T10:35:19.236Z,9.80
2022-12-04T10:37:48.390Z,9.60
2022-12-04T10:40:41.353Z,11.73
2022-12-04T10:43:29.351Z,9.10
2022-12-04T10:45:58.711Z,9.03
2022-12-04T10:48:36.005Z,8.70
2022-12-04T10:51:02.714Z,8.40
2022-12-04T10:53:37.084Z,10.67
2022-12-04T10:56:09.671Z,9.03
2022-12-04T10:58:36.267Z,9.17
2022-12-04T11:01:06.397Z,10.60
2022-12-04T11:03:34.325Z,10.57
2022-12-04T11:06:04.689Z,10.43
2022-12-04T11:08:53.407Z,9.13
2022-12-04T11:11:39.229Z,10.53
2022-12-04T11:14:18.195Z,10.80
2022-12-04T11:16:48.370Z,9.90
2022-12-04T11:19:24.068Z,8.47
2022-12-04T11:21:52.763Z,9.73
2022-12-04T11:24:23.227Z,9.10
2022-12-04T11:26:51.105Z,10.40
2022-12-04T11:29:20.930Z,10.80
2022-12-04T11:31:50.237Z,9.87
2022-12-04T11:34:23.032Z,9.80
2022-12-04T11:36:56.372Z,13.03
2022-12-04T11:39:32.152Z,11.73
2022-12-04T11:42:17.092Z,9.60
2022-12-04T11:44:57.334Z,12.47
2022-12-04T11:47:27.684Z,13.37
2022-12-04T11:50:19.007Z,10.27
2022-12-04T11:52:59.321Z,11.23
2022-12-04T11:55:35.235Z,13.10
2022-12-04T11:58:12.949Z,12.10
2022-12-04T12:00:57.307Z,10.93
2022-12-04T12:03:43.741Z,15.50
2022-12-04T12:06:23.920Z,11.90
2022-12-04T12:08:53.557Z,13.50
2022-12-04T12:11:38.925Z,12.80
2022-12-04T12:14:19.161Z,10.57
2022-12-04T12:17:14.036Z,13.50
2022-12-04T12:19:58.227Z,12.73
2022-12-04T12:22:49.491Z,10.40
2022-12-04T12:25:21.223Z,12.10
2022-12-04T12:28:29.672Z,12.37
2022-12-04T12:31:21.294Z,10.60
2022-12-04T12:34:03.407Z,11.03
2022-12-04T12:36:40.015Z,13.13
2022-12-04T12:39:20.028Z,12.43
2022-12-04T12:41:56.737Z,15.30
2022-12-04T12:44:34.634Z,14.13
2022-12-04T12:47:08.674Z,12.43
2022-12-04T12:49:45.154Z,11.90
2022-12-04T12:52:16.364Z,15.93
2022-12-04T12:54:48.297Z,13.63
2022-12-04T12:58:13.667Z,12.30
2022-12-04T13:01:22.595Z,11.53
2022-12-04T13:04:03.531Z,11.10
2022-12-04T13:06:38.083Z,12.60
2022-12-04T13:09:29.811Z,12.00
2022-12-04T13:12:02.560Z,10.93
2022-12-04T13:14:32.192Z,13.00
2022-12-04T13:17:02.549Z,15.40
2022-12-04T13:19:33.977Z,13.40
2022-12-04T13:22:21.857Z,9.73
2022-12-04T13:25:06.704Z,12.70
2022-12-04T13:28:10.629Z,11.37
2022-12-04T13:30:51.881Z,13.50
2022-12-04T13:33:29.384Z,14.03
2022-12-04T13:36:14.783Z,14.83
2022-12-04T13:38:58.261Z,11.73
2022-12-04T13:41:28.014Z,14.37
2022-12-04T13:44:01.777Z,12.70
2022-12-04T13:46:39.772Z,10.47
2022-12-04T13:49:13.492Z,12.40
2022-12-04T13:51:42.188Z,12.03
2022-12-04T13:54:11.889Z,12.27
2022-12-04T13:56:44.705Z,12.30
2022-12-04T13:59:30.916Z,13.00
2022-12-04T14:02:05.065Z,9.90
2022-12-04T14:04:46.097Z,12.93
2022-12-04T14:07:31.925Z,10.97
2022-12-04T14:10:04.616Z,10.43
2022-12-04T14:12:36.399Z,10.63
2022-12-04T14:15:22.559Z,15.20
2022-12-04T14:18:16.405Z,13.20
2022-12-04T14:20:47.326Z,14.63
2022-12-04T14:23:19.957Z,21.47
2022-12-04T14:25:46.660Z,17.80
2022-12-04T14:28:25.665Z,13.30
2022-12-04T14:31:03.593Z,19.50
2022-12-04T14:33:32.846Z,17.13
2022-12-04T14:36:11.265Z,18.03
2022-12-04T14:38:38.566Z,14.00
2022-12-04T14:41:05.435Z,25.20
2022-12-04T14:43:39.686Z,24.30
2022-12-04T14:46:18.930Z,25.47
2022-12-04T14:49:19.679Z,15.70
2022-12-04T14:52:04.582Z,19.10
2022-12-04T14:54:43.376Z,15.33
2022-12-04T14:57:43.544Z,16.60
2022-12-04T15:00:20.058Z,13.77
2022-12-04T15:02:49.137Z,14.77
2022-12-04T15:05:29.278Z,19.13
2022-12-04T15:08:02.310Z,19.40
2022-12-04T15:10:50.142Z,15.33
2022-12-04T15:13:34.270Z,15.47
2022-12-04T15:16:20.796Z,19.00
2022-12-04T15:18:55.181Z,17.10
2022-12-04T15:21:24.193Z,16.57
2022-12-04T15:23:50.930Z,19.43
2022-12-04T15:26:20.986Z,18.27
2022-12-04T15:28:52.662Z,12.93
2022-12-04T15:31:24.117Z,13.60
2022-12-04T15:33:56.697Z,18.50
2022-12-04T15:36:42.898Z,17.43
2022-12-04T15:39:21.442Z,18.23
2022-12-04T15:41:48.576Z,15.77
2022-12-04T15:44:29.891Z,14.70
2022-12-04T15:47:00.176Z,14.70
2022-12-04T15:49:31.370Z,17.03
2022-12-04T15:52:14.381Z,16.07
2022-12-04T15:54:56.688Z,17.17
2022-12-04T15:57:35.448Z,17.83
2022-12-04T16:00:05.339Z,15.20
2022-12-04T16:02:35.906Z,17.47
2022-12-04T16:05:21.871Z,16.60
2022-12-04T16:08:01.536Z,17.67
2022-12-04T16:10:35.623Z,17.03
2022-12-04T16:13:04.962Z,15.83
2022-12-04T16:15:38.810Z,18.07
2022-12-04T16:18:07.157Z,21.97
2022-12-04T16:20:36.047Z,18.43
2022-12-04T16:23:03.935Z,17.97
2022-12-04T16:25:31.625Z,17.63
2022-12-04T16:27:59.577Z,20.03
2022-12-04T16:30:27.963Z,17.63
2022-12-04T16:32:54.646Z,22.83
2022-12-04T16:35:21.565Z,19.53
2022-12-04T16:37:48.272Z,23.27
2022-12-04T16:40:15.779Z,22.67
2022-12-04T16:42:44.085Z,24.57
2022-12-04T16:45:31.305Z,23.27
2022-12-04T16:47:58.481Z,21.67
2022-12-04T16:50:26.235Z,20.27
2022-12-04T16:52:53.479Z,20.20
2022-12-04T16:55:29.316Z,21.20
2022-12-04T16:57:55.994Z,23.73
2022-12-04T17:00:22.840Z,20.10
2022-12-04T17:02:49.637Z,19.93
2022-12-04T17:05:24.888Z,23.20
2022-12-04T17:07:51.748Z,22.00
2022-12-04T17:10:23.730Z,23.80
2022-12-04T17:12:54.645Z,25.93
2022-12-04T17:15:21.604Z,18.43
2022-12-04T17:17:48.514Z,22.40
2022-12-04T17:20:17.935Z,21.93
2022-12-04T17:22:44.644Z,24.10
2022-12-04T17:25:12.020Z,17.97
2022-12-04T17:27:39.599Z,23.60
2022-12-04T17:30:07.383Z,21.40
2022-12-04T17:32:37.451Z,23.03
2022-12-04T17:35:06.674Z,18.90
2022-12-04T17:37:34.140Z,24.10
2022-12-04T17:40:00.853Z,26.53
2022-12-04T17:42:27.750Z,26.50
2022-12-04T17:44:54.507Z,28.77
2022-12-04T17:47:21.407Z,23.70
2022-12-04T17:49:48.122Z,27.33
2022-12-04T17:52:14.832Z,24.00
2022-12-04T17:54:41.529Z,21.33
2022-12-04T17:57:08.292Z,22.10
2022-12-04T17:59:35.019Z,22.00
2022-12-04T18:02:01.779Z,24.33
2022-12-04T18:04:28.493Z,25.73
2022-12-04T18:06:56.444Z,23.63
2022-12-04T18:09:23.330Z,27.77
2022-12-04T18:11:50.041Z,25.30
2022-12-04T18:14:19.271Z,21.93
2022-12-04T18:16:52.844Z,24.50
2022-12-04T18:19:22.373Z,23.90
2022-12-04T18:21:49.689Z,26.20
2022-12-04T18:24:17.847Z,25.73
2022-12-04T18:26:48.097Z,25.77
2022-12-04T18:29:26.020Z,26.33
2022-12-04T18:31:53.417Z,27.97
2022-12-04T18:34:20.450Z,29.87
2022-12-04T18:36:50.255Z,31.23
2022-12-04T18:39:19.696Z,31.73
2022-12-04T18:41:47.526Z,33.40
2022-12-04T18:44:15.185Z,25.10
2022-12-04T18:46:42.600Z,43.77
2022-12-04T18:49:10.655Z,31.20
2022-12-04T18:51:37.820Z,29.50
2022-12-04T18:54:08.540Z,25.03
2022-12-04T18:56:35.893Z,31.13
2022-12-04T18:59:14.901Z,30.33
2022-12-04T19:01:42.386Z,28.00
2022-12-04T19:04:11.270Z,29.80
2022-12-04T19:06:43.388Z,28.60
2022-12-04T19:09:17.224Z,28.40
2022-12-04T19:11:45.218Z,31.83
2022-12-04T19:14:22.407Z,31.87
2022-12-04T19:16:50.423Z,31.00
2022-12-04T19:19:17.841Z,32.73
2022-12-04T19:21:44.760Z,25.60
2022-12-04T19:24:12.397Z,30.50
2022-12-04T19:26:39.801Z,31.77
2022-12-04T19:29:07.196Z,29.37
2022-12-04T19:31:36.401Z,35.80
2022-12-04T19:34:04.255Z,30.93
2022-12-04T19:36:33.096Z,31.03
2022-12-04T19:39:01.061Z,29.30
2022-12-04T19:41:37.169Z,23.87
2022-12-04T19:44:20.030Z,28.70
2022-12-04T19:46:51.150Z,28.30
2022-12-04T19:49:17.840Z,28.13
2022-12-04T19:51:44.693Z,31.07
2022-12-04T19:54:13.041Z,29.73
2022-12-04T19:56:39.889Z,27.33
2022-12-04T19:59:08.057Z,35.30
2022-12-04T20:01:35.730Z,32.13
2022-12-04T20:04:06.431Z,32.70
2022-12-04T20:06:51.268Z,33.37
2022-12-04T20:09:23.610Z,33.47
2022-12-04T20:11:50.429Z,31.47
2022-12-04T20:14:17.575Z,34.93
2022-12-04T20:16:44.895Z,33.37
2022-12-04T20:19:15.466Z,34.13
2022-12-04T20:21:42.816Z,35.30
2022-12-04T20:24:12.235Z,27.83
2022-12-04T20:26:41.057Z,35.43
2022-12-04T20:29:10.864Z,30.53
2022-12-04T20:31:39.853Z,27.90
2022-12-04T20:34:10.292Z,31.00
2022-12-04T20:36:42.945Z,39.10
2022-12-04T20:39:11.423Z,28.57
2022-12-04T20:41:38.967Z,35.53
2022-12-04T20:44:08.053Z,34.40
2022-12-04T20:46:39.375Z,33.27
2022-12-04T20:49:08.648Z,36.47
2022-12-04T20:51:40.680Z,38.10
2022-12-04T20:54:09.238Z,31.97
2022-12-04T20:56:37.608Z,33.00
2022-12-04T20:59:11.311Z,32.10
2022-12-04T21:01:38.321Z,32.33
2022-12-04T21:04:06.277Z,30.90
2022-12-04T21:06:36.031Z,33.47
2022-12-04T21:09:06.286Z,32.57
2022-12-04T21:11:35.806Z,32.17
2022-12-04T21:14:23.548Z,28.83
2022-12-04T21:16:50.774Z,30.70
2022-12-04T21:19:22.325Z,35.20
2022-12-04T21:21:49.860Z,35.87
2022-12-04T21:24:18.784Z,34.47
2022-12-04T21:26:45.553Z,35.57
2022-12-04T21:29:12.836Z,28.60
2022-12-04T21:31:39.942Z,33.23
2022-12-04T21:34:10.355Z,33.00
2022-12-04T21:36:37.097Z,33.40
2022-12-04T21:39:04.527Z,33.60
2022-12-04T21:41:49.718Z,32.90
2022-12-04T21:44:18.583Z,31.60
2022-12-04T21:46:46.354Z,33.17
2022-12-04T21:49:13.891Z,32.73
2022-12-04T21:51:56.860Z,36.10
2022-12-04T21:54:25.263Z,33.70
2022-12-04T21:56:51.995Z,31.37
2022-12-04T21:59:18.739Z,33.20
2022-12-04T22:01:49.061Z,30.37
2022-12-04T22:04:16.056Z,30.67
2022-12-04T22:06:45.337Z,31.40
2022-12-04T22:09:13.172Z,30.20
2022-12-04T22:11:44.305Z,27.97
2022-12-04T22:14:14.081Z,36.80
2022-12-04T22:16:43.366Z,26.57
2022-12-04T22:19:12.479Z,39.10
2022-12-04T22:21:40.174Z,34.13
2022-12-04T22:24:07.401Z,32.70
2022-12-04T22:26:34.297Z,33.30
2022-12-04T22:29:01.224Z,33.70
2022-12-04T22:31:29.889Z,36.13
2022-12-04T22:33:59.296Z,32.13
2022-12-04T22:36:31.651Z,32.40
2022-12-04T22:39:09.811Z,31.90
2022-12-04T22:41:37.484Z,28.40
2022-12-04T22:44:04.874Z,30.60
2022-12-04T22:46:32.280Z,30.73
2022-12-04T22:48:59.510Z,26.73
2022-12-04T22:51:27.338Z,29.20
2022-12-04T22:53:56.508Z,30.13
2022-12-04T22:56:32.054Z,19.83
2022-12-04T22:59:01.578Z,25.57
2022-12-04T23:01:31.902Z,27.60
2022-12-04T23:03:59.736Z,23.77
2022-12-04T23:06:29.872Z,28.23
2022-12-04T23:09:00.345Z,21.13
2022-12-04T23:11:28.131Z,21.70
2022-12-04T23:14:01.361Z,22.50
2022-12-04T23:16:30.791Z,20.17
2022-12-04T23:18:58.087Z,18.07
2022-12-04T23:21:25.414Z,22.83
2022-12-04T23:23:54.404Z,22.40
2022-12-04T23:26:25.370Z,32.17
2022-12-04T23:28:52.377Z,21.10
2022-12-04T23:31:19.541Z,19.37
2022-12-04T23:33:46.305Z,21.80
2022-12-04T23:36:14.337Z,21.60
2022-12-04T23:38:42.633Z,19.80
2022-12-04T23:41:25.705Z,23.23
2022-12-04T23:43:53.598Z,23.53
2022-12-04T23:46:27.584Z,20.90
2022-12-04T23:48:55.184Z,20.70
2022-12-04T23:51:22.271Z,19.20
2022-12-04T23:53:49.415Z,21.50
2022-12-04T23:56:22.771Z,18.67
2022-12-04T23:58:51.463Z,18.27
